createdAt,value
2017-02-16T00:00:58.490Z,0
2017-02-16T00:02:11.088Z,0
2017-02-16T00:03:23.123Z,0
2017-02-16T00:04:36.560Z,0
2017-02-16T00:05:49.711Z,0
2017-02-16T00:07:02.875Z,0
2017-02-16T00:08:16.062Z,0
2017-02-16T00:10:56.377Z,0
2017-02-16T00:12:09.550Z,0
2017-02-16T00:13:22.708Z,0
2017-02-16T00:14:35.873Z,0
2017-02-16T00:15:49.328Z,0
2017-02-16T00:17:02.493Z,0
2017-02-16T00:21:08.862Z,0
2017-02-16T00:22:22.015Z,0
2017-02-16T00:23:48.613Z,0
2017-02-16T00:25:01.779Z,0
2017-02-16T00:26:15.193Z,0
2017-02-16T00:27:27.801Z,0
2017-02-16T00:28:40.964Z,0
2017-02-16T00:29:54.120Z,0
2017-02-16T00:31:07.278Z,0
2017-02-16T00:32:20.452Z,0
2017-02-16T00:33:33.599Z,0
2017-02-16T00:34:46.770Z,0
2017-02-16T00:35:59.975Z,0
2017-02-16T00:37:13.143Z,0
2017-02-16T00:38:25.754Z,0
2017-02-16T00:39:38.904Z,0
2017-02-16T00:40:52.060Z,0
2017-02-16T00:42:05.221Z,0
2017-02-16T00:43:18.407Z,0
2017-02-16T00:44:30.994Z,0
2017-02-16T00:45:44.148Z,0
2017-02-16T00:46:57.299Z,0
2017-02-16T00:48:10.103Z,0
2017-02-16T00:49:22.695Z,0
2017-02-16T00:50:34.727Z,0
2017-02-16T00:51:47.879Z,0
2017-02-16T00:53:01.236Z,0
2017-02-16T00:54:14.409Z,0
2017-02-16T00:55:27.570Z,0
2017-02-16T00:56:40.744Z,0
2017-02-16T00:57:53.929Z,0
2017-02-16T00:59:07.084Z,0
2017-02-16T01:00:20.249Z,0
2017-02-16T01:01:33.423Z,0
2017-02-16T01:02:46.603Z,0
2017-02-16T01:03:59.975Z,0
2017-02-16T01:05:13.162Z,0
2017-02-16T01:06:26.346Z,0
2017-02-16T01:07:53.496Z,0
2017-02-16T01:09:06.314Z,0
2017-02-16T01:10:19.504Z,0
2017-02-16T01:11:32.664Z,0
2017-02-16T01:12:45.839Z,0
2017-02-16T01:13:59.003Z,0
2017-02-16T01:15:12.156Z,0
2017-02-16T01:16:24.781Z,0
2017-02-16T01:17:37.966Z,0
2017-02-16T01:18:51.142Z,0
2017-02-16T01:20:04.329Z,0
2017-02-16T01:21:16.927Z,0
2017-02-16T01:22:30.088Z,0
2017-02-16T01:23:43.239Z,0
2017-02-16T01:25:10.596Z,0
2017-02-16T01:26:23.188Z,0
2017-02-16T01:27:35.226Z,0
2017-02-16T01:28:48.389Z,0
2017-02-16T01:30:01.561Z,0
2017-02-16T01:31:14.723Z,0
2017-02-16T01:32:27.877Z,0
2017-02-16T01:35:08.177Z,0
2017-02-16T01:36:21.003Z,0
2017-02-16T01:37:33.591Z,0
2017-02-16T01:38:46.761Z,0
2017-02-16T01:39:59.929Z,0
2017-02-16T01:41:13.288Z,0
2017-02-16T01:42:26.471Z,0
2017-02-16T01:43:39.629Z,0
2017-02-16T01:44:52.774Z,0
2017-02-16T01:46:05.946Z,0
2017-02-16T01:47:18.543Z,0
2017-02-16T01:48:31.713Z,0
2017-02-16T01:49:44.899Z,0
2017-02-16T01:50:57.486Z,0
2017-02-16T01:52:10.849Z,0
2017-02-16T01:53:24.015Z,0
2017-02-16T01:54:37.174Z,0
2017-02-16T01:55:50.320Z,0
2017-02-16T01:57:03.493Z,0
2017-02-16T01:58:15.545Z,0
2017-02-16T01:59:28.701Z,0
2017-02-16T02:00:41.848Z,0
2017-02-16T02:01:55.001Z,0
2017-02-16T02:03:08.347Z,0
2017-02-16T02:04:20.970Z,0
2017-02-16T02:05:34.131Z,0
2017-02-16T02:06:47.292Z,0
2017-02-16T02:08:00.464Z,0
2017-02-16T02:09:13.052Z,0
2017-02-16T02:10:25.658Z,0
2017-02-16T02:11:38.255Z,0
2017-02-16T02:13:05.413Z,0
2017-02-16T02:14:18.215Z,0
2017-02-16T02:15:31.384Z,0
2017-02-16T02:16:44.543Z,0
2017-02-16T02:18:11.724Z,0
2017-02-16T02:19:24.876Z,0
2017-02-16T02:20:38.040Z,0
2017-02-16T02:21:51.190Z,0
2017-02-16T02:23:04.368Z,0
2017-02-16T02:24:17.169Z,0
2017-02-16T02:25:29.770Z,0
2017-02-16T02:26:42.917Z,0
2017-02-16T02:27:56.069Z,0
2017-02-16T02:29:09.246Z,0
2017-02-16T02:30:22.637Z,0
2017-02-16T02:31:35.255Z,0
2017-02-16T02:32:48.412Z,0
2017-02-16T02:34:01.565Z,0
2017-02-16T02:35:14.941Z,0
2017-02-16T02:36:28.101Z,0
2017-02-16T02:37:41.249Z,0
2017-02-16T02:38:54.427Z,0
2017-02-16T02:40:21.895Z,0
2017-02-16T02:41:35.060Z,0
2017-02-16T02:42:48.218Z,0
2017-02-16T02:44:01.379Z,0
2017-02-16T02:45:14.537Z,0
2017-02-16T02:46:27.999Z,0
2017-02-16T02:47:40.604Z,0
2017-02-16T02:48:53.761Z,0
2017-02-16T02:50:06.912Z,0
2017-02-16T02:51:20.073Z,0
2017-02-16T02:52:33.237Z,0
2017-02-16T02:53:46.402Z,0
2017-02-16T02:54:59.557Z,0
2017-02-16T02:56:12.174Z,0
2017-02-16T02:57:25.538Z,0
2017-02-16T02:58:38.695Z,0
2017-02-16T02:59:51.298Z,0
2017-02-16T03:01:04.583Z,0
2017-02-16T03:02:17.340Z,0
2017-02-16T03:03:30.639Z,0
2017-02-16T03:04:43.938Z,0
2017-02-16T03:05:57.258Z,0
2017-02-16T03:07:10.579Z,0
2017-02-16T03:08:24.071Z,0
2017-02-16T03:09:37.368Z,0
2017-02-16T03:10:50.655Z,0
2017-02-16T03:12:03.961Z,0
2017-02-16T03:13:17.001Z,0
2017-02-16T03:14:44.276Z,0
2017-02-16T03:15:57.573Z,0
2017-02-16T03:17:10.889Z,0
2017-02-16T03:18:24.177Z,0
2017-02-16T03:19:37.463Z,0
2017-02-16T03:21:04.745Z,0
2017-02-16T03:22:18.047Z,0
2017-02-16T03:23:31.347Z,0
2017-02-16T03:24:44.638Z,0
2017-02-16T03:25:57.931Z,0
2017-02-16T03:27:11.224Z,0
2017-02-16T03:28:24.841Z,0
2017-02-16T03:29:38.125Z,0
2017-02-16T03:30:51.417Z,0
2017-02-16T03:32:04.703Z,0
2017-02-16T03:33:17.997Z,0
2017-02-16T03:34:30.719Z,0
2017-02-16T03:35:44.039Z,0
2017-02-16T03:36:57.357Z,0
2017-02-16T03:38:10.659Z,0
2017-02-16T03:39:23.687Z,0
2017-02-16T03:40:36.979Z,0
2017-02-16T03:41:50.280Z,0
2017-02-16T03:43:03.568Z,0
2017-02-16T03:44:16.291Z,0
2017-02-16T03:45:29.579Z,0
2017-02-16T03:46:42.861Z,0
2017-02-16T03:47:56.169Z,0
2017-02-16T03:49:09.462Z,0
2017-02-16T03:50:22.947Z,0
2017-02-16T03:51:35.676Z,0
2017-02-16T03:52:48.989Z,0
2017-02-16T03:54:02.288Z,0
2017-02-16T03:55:29.759Z,0
2017-02-16T03:56:43.094Z,0
2017-02-16T03:57:56.415Z,0
2017-02-16T03:59:09.705Z,0
2017-02-16T04:00:23.009Z,0
2017-02-16T04:01:36.594Z,0
2017-02-16T04:02:49.899Z,0
2017-02-16T04:04:03.187Z,0
2017-02-16T04:05:30.466Z,0
2017-02-16T04:06:43.754Z,0
2017-02-16T04:07:56.469Z,0
2017-02-16T04:09:09.758Z,0
2017-02-16T04:10:23.052Z,0
2017-02-16T04:11:36.555Z,0
2017-02-16T04:12:49.840Z,0
2017-02-16T04:14:02.557Z,0
2017-02-16T04:15:15.857Z,0
2017-02-16T04:16:29.177Z,0
2017-02-16T04:17:42.680Z,0
2017-02-16T04:18:55.970Z,0
2017-02-16T04:20:09.293Z,0
2017-02-16T04:21:22.584Z,0
2017-02-16T04:22:35.520Z,0
2017-02-16T04:24:02.831Z,0
2017-02-16T04:25:15.555Z,0
2017-02-16T04:26:28.853Z,0
2017-02-16T04:27:42.378Z,0
2017-02-16T04:28:55.680Z,0
2017-02-16T04:30:08.967Z,0
2017-02-16T04:32:49.296Z,0
2017-02-16T04:34:02.451Z,0
2017-02-16T04:35:15.596Z,0
2017-02-16T04:36:28.748Z,0
2017-02-16T04:37:42.113Z,0
2017-02-16T04:38:55.266Z,0
2017-02-16T04:40:22.438Z,0
2017-02-16T04:41:35.633Z,0
2017-02-16T04:42:49.003Z,0
2017-02-16T04:44:02.170Z,0
2017-02-16T04:45:14.782Z,0
2017-02-16T04:46:27.936Z,0
2017-02-16T04:47:40.532Z,0
2017-02-16T04:48:53.690Z,0
2017-02-16T04:50:06.280Z,0
2017-02-16T04:51:19.447Z,0
2017-02-16T04:52:32.626Z,0
2017-02-16T04:53:46.087Z,0
2017-02-16T04:54:59.236Z,0
2017-02-16T04:56:26.398Z,0
2017-02-16T04:57:38.993Z,0
2017-02-16T04:58:53.164Z,0
2017-02-16T05:00:05.774Z,0
2017-02-16T05:01:18.372Z,0
2017-02-16T05:02:31.531Z,0
2017-02-16T05:03:44.893Z,0
2017-02-16T05:04:58.056Z,0
2017-02-16T05:06:10.662Z,0
2017-02-16T05:07:37.816Z,0
2017-02-16T05:08:50.983Z,0
2017-02-16T05:10:04.130Z,0
2017-02-16T05:11:16.185Z,0
2017-02-16T05:12:28.831Z,0
2017-02-16T05:13:41.985Z,0
2017-02-16T05:14:55.433Z,0
2017-02-16T05:16:08.595Z,0
2017-02-16T05:17:21.755Z,0
2017-02-16T05:18:34.931Z,0
2017-02-16T05:19:48.093Z,0
2017-02-16T05:21:01.241Z,0
2017-02-16T05:22:13.848Z,0
2017-02-16T05:23:26.461Z,0
2017-02-16T05:24:39.059Z,0
2017-02-16T05:25:52.230Z,0
2017-02-16T05:27:05.399Z,0
2017-02-16T05:28:18.569Z,0
2017-02-16T05:29:45.782Z,0
2017-02-16T05:30:59.279Z,0
2017-02-16T05:32:12.451Z,0
2017-02-16T05:33:25.617Z,0
2017-02-16T05:34:38.791Z,0
2017-02-16T05:35:51.957Z,0
2017-02-16T05:37:05.130Z,0
2017-02-16T05:38:18.288Z,0
2017-02-16T05:39:31.456Z,0
2017-02-16T05:40:44.631Z,0
2017-02-16T05:41:57.557Z,0
2017-02-16T05:43:10.727Z,0
2017-02-16T05:44:23.882Z,0
2017-02-16T05:45:36.475Z,0
2017-02-16T05:46:49.834Z,0
2017-02-16T05:48:02.981Z,0
2017-02-16T05:49:15.590Z,0
2017-02-16T05:50:28.735Z,0
2017-02-16T05:51:41.908Z,0
2017-02-16T05:52:55.265Z,0
2017-02-16T05:54:07.883Z,0
2017-02-16T05:55:19.936Z,0
2017-02-16T05:56:47.110Z,0
2017-02-16T05:58:00.284Z,0
2017-02-16T05:59:13.451Z,0
2017-02-16T06:00:26.606Z,0
2017-02-16T06:01:39.325Z,0
2017-02-16T06:02:52.936Z,0
2017-02-16T06:04:06.234Z,0
2017-02-16T06:05:18.958Z,0
2017-02-16T06:06:32.245Z,0
2017-02-16T06:07:45.532Z,0
2017-02-16T06:08:58.827Z,0
2017-02-16T06:10:26.097Z,0
2017-02-16T06:11:39.385Z,0
2017-02-16T06:12:52.097Z,0
2017-02-16T06:14:05.699Z,0
2017-02-16T06:15:18.441Z,0
2017-02-16T06:16:31.761Z,0
2017-02-16T06:17:43.914Z,0
2017-02-16T06:18:57.401Z,0
2017-02-16T06:20:10.693Z,0
2017-02-16T06:21:23.433Z,0
2017-02-16T06:22:36.738Z,0
2017-02-16T06:23:50.025Z,0
2017-02-16T06:25:03.634Z,0
2017-02-16T06:26:16.934Z,0
2017-02-16T06:27:30.232Z,0
2017-02-16T06:28:43.542Z,0
2017-02-16T06:29:56.829Z,0
2017-02-16T06:31:10.122Z,0
2017-02-16T06:32:23.408Z,0
2017-02-16T06:33:36.694Z,0
2017-02-16T06:34:49.420Z,0
2017-02-16T06:36:03.005Z,0
2017-02-16T06:37:16.299Z,0
2017-02-16T06:38:29.587Z,0
2017-02-16T06:41:10.179Z,0
2017-02-16T06:42:23.486Z,0
2017-02-16T06:43:36.217Z,0
2017-02-16T06:44:49.526Z,0
2017-02-16T06:46:03.011Z,0
2017-02-16T06:47:30.161Z,0
2017-02-16T06:48:43.339Z,0
2017-02-16T06:50:10.489Z,0
2017-02-16T06:51:23.659Z,0
2017-02-16T06:52:36.263Z,0
2017-02-16T06:53:49.415Z,0
2017-02-16T06:55:02.590Z,0
2017-02-16T06:56:15.755Z,0
2017-02-16T06:57:28.353Z,0
2017-02-16T06:58:41.529Z,0
2017-02-16T06:59:54.119Z,0
2017-02-16T07:02:34.667Z,0
2017-02-16T07:03:47.290Z,0
2017-02-16T07:05:00.459Z,0
2017-02-16T07:06:13.634Z,0
2017-02-16T07:07:27.125Z,0
2017-02-16T07:08:40.273Z,0
2017-02-16T07:09:53.456Z,0
2017-02-16T07:11:06.629Z,0
2017-02-16T07:12:19.215Z,0
2017-02-16T07:13:32.583Z,0
2017-02-16T07:14:45.171Z,0
2017-02-16T07:15:58.345Z,0
2017-02-16T07:17:11.503Z,0
2017-02-16T07:18:38.295Z,0
2017-02-16T07:19:51.464Z,0
2017-02-16T07:21:04.629Z,0
2017-02-16T07:22:17.783Z,0
2017-02-16T07:23:30.933Z,0
2017-02-16T07:24:43.744Z,0
2017-02-16T07:25:56.916Z,0
2017-02-16T07:27:10.084Z,0
2017-02-16T07:28:23.248Z,0
2017-02-16T07:29:36.701Z,0
2017-02-16T07:30:49.848Z,0
2017-02-16T07:32:02.997Z,0
2017-02-16T07:33:16.154Z,0
2017-02-16T07:34:29.301Z,0
2017-02-16T07:35:42.452Z,0
2017-02-16T07:36:55.604Z,0
2017-02-16T07:38:08.764Z,0
2017-02-16T07:39:21.356Z,0
2017-02-16T07:40:34.811Z,0
2017-02-16T07:41:46.855Z,0
2017-02-16T07:43:00.010Z,0
2017-02-16T07:44:13.171Z,0
2017-02-16T07:45:25.202Z,0
2017-02-16T07:46:38.686Z,0
2017-02-16T07:47:51.856Z,0
2017-02-16T07:49:05.031Z,0
2017-02-16T07:50:17.647Z,0
2017-02-16T07:51:31.099Z,0
2017-02-16T07:52:43.716Z,0
2017-02-16T07:53:56.882Z,0
2017-02-16T07:55:10.040Z,0
2017-02-16T07:56:23.197Z,0
2017-02-16T07:57:50.361Z,0
2017-02-16T07:59:03.518Z,0
2017-02-16T08:00:15.008Z,0
2017-02-16T08:01:28.157Z,0
2017-02-16T08:02:40.751Z,0
2017-02-16T08:03:53.905Z,0
2017-02-16T08:05:07.104Z,0
2017-02-16T08:06:19.703Z,0
2017-02-16T08:07:33.163Z,0
2017-02-16T08:08:46.330Z,0
2017-02-16T08:09:59.487Z,0
2017-02-16T08:11:26.077Z,0
2017-02-16T08:12:39.541Z,0
2017-02-16T08:13:52.699Z,0
2017-02-16T08:15:05.876Z,0
2017-02-16T08:16:18.010Z,0
2017-02-16T08:17:31.300Z,0
2017-02-16T08:18:44.806Z,0
2017-02-16T08:19:58.089Z,0
2017-02-16T08:21:10.819Z,0
2017-02-16T08:22:24.131Z,0
2017-02-16T08:23:37.629Z,0
2017-02-16T08:25:04.915Z,0
2017-02-16T08:26:17.081Z,0
2017-02-16T08:27:30.381Z,0
2017-02-16T08:28:43.973Z,0
2017-02-16T08:29:57.276Z,0
2017-02-16T08:31:10.004Z,0
2017-02-16T08:32:23.308Z,0
2017-02-16T08:33:36.609Z,0
2017-02-16T08:34:49.893Z,0
2017-02-16T08:36:03.229Z,0
2017-02-16T08:37:15.950Z,0
2017-02-16T08:38:29.275Z,0
2017-02-16T08:39:42.901Z,0
2017-02-16T08:40:56.204Z,0
2017-02-16T08:42:08.356Z,0
2017-02-16T08:43:21.656Z,0
2017-02-16T08:44:34.956Z,0
2017-02-16T08:45:48.541Z,0
2017-02-16T08:47:01.829Z,0
2017-02-16T08:48:15.132Z,0
2017-02-16T08:49:28.422Z,0
2017-02-16T08:50:42.027Z,0
2017-02-16T08:51:54.758Z,0
2017-02-16T08:53:22.042Z,0
2017-02-16T08:54:35.338Z,0
2017-02-16T08:56:02.903Z,0
2017-02-16T08:57:15.629Z,0
2017-02-16T08:58:28.942Z,0
2017-02-16T08:59:42.236Z,0
2017-02-16T09:00:55.533Z,0
2017-02-16T09:02:08.250Z,0
2017-02-16T09:03:21.562Z,0
2017-02-16T09:04:34.849Z,0
2017-02-16T09:05:48.369Z,0
2017-02-16T09:07:01.668Z,0
2017-02-16T09:09:42.240Z,0
2017-02-16T09:10:54.958Z,0
2017-02-16T09:12:08.263Z,0
2017-02-16T09:13:21.603Z,0
2017-02-16T09:14:34.887Z,0
2017-02-16T09:15:48.391Z,0
2017-02-16T09:17:15.672Z,0
2017-02-16T09:18:28.987Z,0
2017-02-16T09:21:09.902Z,0
2017-02-16T09:22:23.186Z,0
2017-02-16T09:23:36.472Z,0
2017-02-16T09:24:49.756Z,0
2017-02-16T09:26:03.265Z,0
2017-02-16T09:27:15.998Z,0
2017-02-16T09:28:29.311Z,0
2017-02-16T09:29:42.050Z,0
2017-02-16T09:30:55.366Z,0
2017-02-16T09:32:08.293Z,0
2017-02-16T09:33:21.609Z,0
2017-02-16T09:34:34.920Z,5
2017-02-16T09:35:48.204Z,5
2017-02-16T09:37:01.504Z,5
2017-02-16T09:38:13.646Z,5
2017-02-16T09:39:26.368Z,5
2017-02-16T09:40:39.659Z,5
2017-02-16T09:42:06.944Z,5
2017-02-16T09:43:20.240Z,5
2017-02-16T09:44:33.549Z,5
2017-02-16T09:45:46.725Z,5
2017-02-16T09:46:58.775Z,5
2017-02-16T09:48:25.947Z,5
2017-02-16T09:49:39.127Z,5
2017-02-16T09:50:52.296Z,5
2017-02-16T09:52:04.895Z,5
2017-02-16T09:53:17.683Z,5
2017-02-16T09:54:30.840Z,5
2017-02-16T09:55:43.988Z,5
2017-02-16T09:58:23.486Z,5
2017-02-16T09:59:36.672Z,5
2017-02-16T10:00:49.854Z,5
2017-02-16T10:02:03.007Z,5
2017-02-16T10:03:15.896Z,5
2017-02-16T10:04:29.047Z,5
2017-02-16T10:05:42.198Z,5
2017-02-16T10:06:55.454Z,5
2017-02-16T10:08:08.066Z,5
2017-02-16T10:09:20.864Z,5
2017-02-16T10:10:34.026Z,5
2017-02-16T10:11:47.217Z,5
2017-02-16T10:13:00.375Z,5
2017-02-16T10:14:13.187Z,5
2017-02-16T10:15:25.808Z,5
2017-02-16T10:16:38.410Z,5
2017-02-16T10:17:51.595Z,5
2017-02-16T10:19:03.644Z,5
2017-02-16T10:20:16.801Z,5
2017-02-16T10:21:29.976Z,5
2017-02-16T10:23:12.854Z,5
2017-02-16T10:24:25.461Z,5
2017-02-16T10:25:38.637Z,5
2017-02-16T10:26:51.813Z,5
2017-02-16T10:28:04.975Z,5
2017-02-16T10:29:18.153Z,10
2017-02-16T10:30:30.960Z,10
2017-02-16T10:31:44.155Z,10
2017-02-16T10:32:57.308Z,10
2017-02-16T10:34:10.467Z,10
2017-02-16T10:35:23.079Z,10
2017-02-16T10:36:36.533Z,10
2017-02-16T10:37:49.715Z,10
2017-02-16T10:39:01.777Z,10
2017-02-16T10:40:14.943Z,10
2017-02-16T10:41:42.096Z,10
2017-02-16T10:42:55.288Z,10
2017-02-16T10:44:07.883Z,10
2017-02-16T10:45:20.487Z,10
2017-02-16T10:46:33.641Z,10
2017-02-16T10:47:47.110Z,10
2017-02-16T10:48:59.726Z,10
2017-02-16T10:50:12.887Z,10
2017-02-16T10:51:26.067Z,10
2017-02-16T10:52:39.240Z,10
2017-02-16T10:53:52.408Z,10
2017-02-16T10:55:05.026Z,10
2017-02-16T10:56:17.654Z,10
2017-02-16T10:57:30.934Z,10
2017-02-16T10:58:44.110Z,10
2017-02-16T11:00:10.766Z,10
2017-02-16T11:01:22.951Z,10
2017-02-16T11:02:36.270Z,10
2017-02-16T11:03:49.550Z,10
2017-02-16T11:05:02.890Z,10
2017-02-16T11:06:16.321Z,10
2017-02-16T11:07:29.510Z,10
2017-02-16T11:08:42.880Z,10
2017-02-16T11:09:56.029Z,10
2017-02-16T11:11:08.652Z,10
2017-02-16T11:12:21.804Z,10
2017-02-16T11:13:34.962Z,10
2017-02-16T11:14:48.109Z,10
2017-02-16T11:16:01.271Z,10
2017-02-16T11:17:13.876Z,10
2017-02-16T11:18:26.486Z,10
2017-02-16T11:19:39.957Z,10
2017-02-16T11:20:53.138Z,10
2017-02-16T11:22:06.319Z,10
2017-02-16T11:24:46.269Z,10
2017-02-16T11:25:58.909Z,10
2017-02-16T11:27:12.078Z,10
2017-02-16T11:28:25.241Z,10
2017-02-16T11:29:38.411Z,10
2017-02-16T11:30:51.839Z,10
2017-02-16T11:32:05.139Z,10
2017-02-16T11:33:17.793Z,10
2017-02-16T11:34:31.016Z,10
2017-02-16T11:35:44.510Z,10
2017-02-16T11:36:57.826Z,10
2017-02-16T11:38:11.121Z,15
2017-02-16T11:39:23.909Z,15
2017-02-16T11:40:37.314Z,10
2017-02-16T11:41:49.979Z,15
2017-02-16T11:43:03.138Z,15
2017-02-16T11:45:43.462Z,15
2017-02-16T11:46:56.358Z,15
2017-02-16T11:48:08.959Z,15
2017-02-16T11:49:22.115Z,15
2017-02-16T11:50:35.266Z,15
2017-02-16T11:51:48.417Z,15
2017-02-16T11:53:01.588Z,15
2017-02-16T11:54:28.182Z,15
2017-02-16T11:55:41.333Z,15
2017-02-16T11:56:54.703Z,15
2017-02-16T11:58:06.749Z,15
2017-02-16T11:59:19.931Z,15
2017-02-16T12:00:45.996Z,15
2017-02-16T12:01:59.168Z,15
2017-02-16T12:03:12.334Z,15
2017-02-16T12:04:24.940Z,15
2017-02-16T12:05:38.099Z,15
2017-02-16T12:06:51.004Z,15
2017-02-16T12:08:04.150Z,15
2017-02-16T12:09:16.753Z,15
2017-02-16T12:10:29.378Z,15
2017-02-16T12:11:42.550Z,15
2017-02-16T12:12:55.709Z,20
2017-02-16T12:14:07.769Z,20
2017-02-16T12:15:20.939Z,20
2017-02-16T12:16:34.087Z,20
2017-02-16T12:17:47.236Z,20
2017-02-16T12:19:00.385Z,20
2017-02-16T12:20:13.569Z,20
2017-02-16T12:21:26.779Z,20
2017-02-16T12:22:39.954Z,20
2017-02-16T12:23:53.122Z,20
2017-02-16T12:25:06.302Z,20
2017-02-16T12:26:19.488Z,20
2017-02-16T12:27:32.118Z,20
2017-02-16T12:28:45.523Z,20
2017-02-16T12:29:58.721Z,20
2017-02-16T12:31:10.797Z,15
2017-02-16T12:32:37.404Z,20
2017-02-16T12:33:50.610Z,20
2017-02-16T12:35:03.865Z,20
2017-02-16T12:36:17.053Z,20
2017-02-16T12:37:30.329Z,20
2017-02-16T12:38:43.725Z,25
2017-02-16T12:39:57.112Z,25
2017-02-16T12:41:09.353Z,30
2017-02-16T12:42:21.971Z,30
2017-02-16T12:43:34.564Z,30
2017-02-16T12:45:15.732Z,40
2017-02-16T12:46:27.911Z,40
2017-02-16T12:47:41.416Z,40
2017-02-16T12:48:54.705Z,45
2017-02-16T12:50:08.016Z,50
2017-02-16T12:51:21.297Z,50
2017-02-16T12:52:34.595Z,55
2017-02-16T12:53:47.889Z,55
2017-02-16T12:55:01.176Z,55
2017-02-16T12:56:14.097Z,55
2017-02-16T12:57:41.351Z,55
2017-02-16T12:59:08.612Z,55
2017-02-16T13:00:21.350Z,60
2017-02-16T13:01:34.657Z,60
2017-02-16T13:02:47.968Z,60
2017-02-16T13:04:01.243Z,65
2017-02-16T13:05:13.965Z,65
2017-02-16T13:06:27.244Z,65
2017-02-16T13:07:39.949Z,65
2017-02-16T13:08:53.241Z,65
2017-02-16T13:10:06.552Z,70
2017-02-16T13:11:33.841Z,65
2017-02-16T13:12:47.127Z,70
2017-02-16T13:14:00.437Z,70
2017-02-16T13:15:13.173Z,70
2017-02-16T13:16:26.668Z,70
2017-02-16T13:17:53.368Z,70
2017-02-16T13:19:06.650Z,70
2017-02-16T13:20:19.363Z,75
2017-02-16T13:21:46.852Z,75
2017-02-16T13:23:00.162Z,75
2017-02-16T13:24:12.882Z,75
2017-02-16T13:25:25.604Z,75
2017-02-16T13:26:53.411Z,75
2017-02-16T13:28:06.714Z,75
2017-02-16T13:29:20.222Z,75
2017-02-16T13:30:33.404Z,75
2017-02-16T13:31:46.556Z,75
2017-02-16T13:32:59.707Z,55
2017-02-16T13:34:12.883Z,75
2017-02-16T13:35:25.474Z,75
2017-02-16T13:36:38.632Z,75
2017-02-16T13:37:51.224Z,75
2017-02-16T13:39:04.393Z,75
2017-02-16T13:40:17.534Z,75
2017-02-16T13:41:30.684Z,75
2017-02-16T13:42:43.828Z,75
2017-02-16T13:43:56.992Z,75
2017-02-16T13:45:10.148Z,70
2017-02-16T13:46:23.283Z,75
2017-02-16T13:47:36.421Z,75
2017-02-16T13:48:49.579Z,75
2017-02-16T13:50:16.746Z,75
2017-02-16T13:51:29.906Z,80
2017-02-16T13:52:43.052Z,80
2017-02-16T13:53:55.652Z,75
2017-02-16T13:55:22.808Z,65
2017-02-16T13:56:35.968Z,80
2017-02-16T13:57:49.115Z,80
2017-02-16T13:59:16.264Z,55
2017-02-16T14:00:29.415Z,85
2017-02-16T14:01:42.592Z,20
2017-02-16T14:02:55.727Z,80
2017-02-16T14:04:08.323Z,85
2017-02-16T14:05:21.680Z,80
2017-02-16T14:06:34.867Z,80
2017-02-16T14:07:48.010Z,85
2017-02-16T14:09:01.373Z,85
2017-02-16T14:10:14.540Z,85
2017-02-16T14:11:27.133Z,90
2017-02-16T14:12:40.306Z,90
2017-02-16T14:13:53.463Z,90
2017-02-16T14:15:06.608Z,90
2017-02-16T14:16:19.829Z,90
2017-02-16T14:17:32.992Z,90
2017-02-16T14:18:46.153Z,75
2017-02-16T14:19:59.307Z,45
2017-02-16T14:21:12.454Z,50
2017-02-16T14:22:25.617Z,90
2017-02-16T14:23:38.807Z,90
2017-02-16T14:24:50.860Z,90
2017-02-16T14:26:04.218Z,90
2017-02-16T14:27:17.355Z,90
2017-02-16T14:28:30.516Z,90
2017-02-16T14:29:43.658Z,90
2017-02-16T14:31:10.258Z,90
2017-02-16T14:32:22.292Z,90
2017-02-16T14:33:34.346Z,90
2017-02-16T14:34:46.967Z,90
2017-02-16T14:36:00.133Z,90
2017-02-16T14:38:40.660Z,90
2017-02-16T14:39:53.836Z,25
2017-02-16T14:41:06.988Z,25
2017-02-16T14:42:19.573Z,25
2017-02-16T14:43:46.731Z,25
2017-02-16T14:44:59.879Z,30
2017-02-16T14:46:13.028Z,30
2017-02-16T14:47:25.615Z,35
2017-02-16T14:48:38.809Z,35
2017-02-16T14:49:50.864Z,35
2017-02-16T14:51:04.026Z,35
2017-02-16T14:52:17.376Z,35
2017-02-16T14:53:30.527Z,30
2017-02-16T14:54:44.112Z,35
2017-02-16T14:55:56.703Z,30
2017-02-16T14:57:09.310Z,35
2017-02-16T14:58:22.654Z,80
2017-02-16T14:59:35.799Z,90
2017-02-16T15:00:48.943Z,35
2017-02-16T15:02:02.088Z,40
2017-02-16T15:03:15.461Z,90
2017-02-16T15:04:28.629Z,45
2017-02-16T15:05:41.767Z,90
2017-02-16T15:06:54.918Z,90
2017-02-16T15:08:08.069Z,90
2017-02-16T15:09:21.425Z,85
2017-02-16T15:10:34.004Z,90
2017-02-16T15:11:47.160Z,90
2017-02-16T15:12:59.757Z,90
2017-02-16T15:14:11.807Z,95
2017-02-16T15:15:24.965Z,90
2017-02-16T15:16:38.104Z,90
2017-02-16T15:18:05.275Z,90
2017-02-16T15:19:18.438Z,90
2017-02-16T15:20:31.626Z,85
2017-02-16T15:21:44.777Z,85
2017-02-16T15:22:57.941Z,80
2017-02-16T15:24:09.981Z,30
2017-02-16T15:25:22.567Z,30
2017-02-16T15:26:35.175Z,30
2017-02-16T15:27:48.329Z,40
2017-02-16T15:29:01.467Z,55
2017-02-16T15:30:13.552Z,75
2017-02-16T15:31:26.155Z,75
2017-02-16T15:32:38.738Z,75
2017-02-16T15:33:51.899Z,75
2017-02-16T15:35:05.066Z,70
2017-02-16T15:36:18.244Z,65
2017-02-16T15:37:31.417Z,65
2017-02-16T15:38:44.615Z,70
2017-02-16T15:39:57.768Z,65
2017-02-16T15:41:10.388Z,65
2017-02-16T15:42:23.589Z,65
2017-02-16T15:45:03.930Z,30
2017-02-16T15:46:17.100Z,30
2017-02-16T15:47:30.277Z,35
2017-02-16T15:48:43.429Z,55
2017-02-16T15:49:56.598Z,65
2017-02-16T15:51:09.751Z,65
2017-02-16T15:52:23.115Z,65
2017-02-16T15:53:36.258Z,45
2017-02-16T15:54:49.428Z,40
2017-02-16T15:56:02.633Z,35
2017-02-16T15:57:15.796Z,35
2017-02-16T15:58:28.949Z,35
2017-02-16T16:01:09.597Z,55
2017-02-16T16:02:36.783Z,55
2017-02-16T16:03:49.388Z,55
2017-02-16T16:05:02.578Z,55
2017-02-16T16:06:14.107Z,55
2017-02-16T16:07:27.397Z,55
2017-02-16T16:08:40.785Z,55
2017-02-16T16:09:53.383Z,45
2017-02-16T16:11:06.595Z,55
2017-02-16T16:13:46.531Z,30
2017-02-16T16:14:59.220Z,25
2017-02-16T16:16:12.492Z,45
2017-02-16T16:17:24.608Z,45
2017-02-16T16:18:37.881Z,50
2017-02-16T16:19:51.267Z,55
2017-02-16T16:21:04.649Z,55
2017-02-16T16:22:17.449Z,55
2017-02-16T16:23:30.892Z,50
2017-02-16T16:24:44.313Z,50
2017-02-16T16:25:57.730Z,50
2017-02-16T16:27:11.172Z,30
2017-02-16T16:28:24.664Z,40
2017-02-16T16:29:38.116Z,25
2017-02-16T16:30:51.495Z,45
2017-02-16T16:33:31.815Z,35
2017-02-16T16:34:43.845Z,35
2017-02-16T16:35:57.010Z,35
2017-02-16T16:37:10.387Z,35
2017-02-16T16:38:22.413Z,50
2017-02-16T16:39:36.097Z,35
2017-02-16T16:40:49.250Z,40
2017-02-16T16:42:02.401Z,30
2017-02-16T16:43:15.001Z,40
2017-02-16T16:44:27.618Z,25
2017-02-16T16:45:40.975Z,30
2017-02-16T16:46:54.155Z,30
2017-02-16T16:48:21.315Z,50
2017-02-16T16:49:47.916Z,35
2017-02-16T16:51:01.373Z,35
2017-02-16T16:52:14.521Z,40
2017-02-16T16:53:27.693Z,30
2017-02-16T16:54:40.845Z,30
2017-02-16T16:55:54.308Z,30
2017-02-16T16:57:07.475Z,30
2017-02-16T16:58:20.623Z,30
2017-02-16T16:59:33.788Z,30
2017-02-16T17:00:46.956Z,30
2017-02-16T17:02:00.146Z,30
2017-02-16T17:03:27.318Z,40
2017-02-16T17:04:40.488Z,25
2017-02-16T17:05:53.628Z,20
2017-02-16T17:07:07.084Z,20
2017-02-16T17:08:20.226Z,20
2017-02-16T17:09:33.376Z,20
2017-02-16T17:10:46.529Z,20
2017-02-16T17:11:59.689Z,20
2017-02-16T17:13:12.854Z,20
2017-02-16T17:14:39.459Z,20
2017-02-16T17:15:52.624Z,20
2017-02-16T17:17:06.098Z,20
2017-02-16T17:18:32.706Z,25
2017-02-16T17:19:45.852Z,25
2017-02-16T17:20:59.029Z,30
2017-02-16T17:22:11.049Z,30
2017-02-16T17:23:24.216Z,25
2017-02-16T17:24:36.815Z,25
2017-02-16T17:25:49.966Z,20
2017-02-16T17:27:02.563Z,25
2017-02-16T17:28:15.718Z,25
2017-02-16T17:29:42.868Z,25
2017-02-16T17:30:56.042Z,20
2017-02-16T17:32:09.181Z,20
2017-02-16T17:33:22.345Z,20
2017-02-16T17:34:49.506Z,25
2017-02-16T17:36:16.657Z,25
2017-02-16T17:37:29.828Z,30
2017-02-16T17:38:42.975Z,30
2017-02-16T17:39:56.125Z,35
2017-02-16T17:41:09.279Z,40
2017-02-16T17:42:22.412Z,40
2017-02-16T17:43:35.756Z,30
2017-02-16T17:44:47.774Z,30
2017-02-16T17:46:00.366Z,35
2017-02-16T17:47:12.953Z,40
2017-02-16T17:48:26.101Z,40
2017-02-16T17:49:53.265Z,45
2017-02-16T17:51:06.400Z,40
2017-02-16T17:52:19.556Z,40
2017-02-16T17:53:32.713Z,30
2017-02-16T17:54:44.739Z,25
2017-02-16T17:56:11.880Z,25
2017-02-16T17:57:38.470Z,25
2017-02-16T17:58:51.615Z,25
2017-02-16T18:00:04.746Z,25
2017-02-16T18:01:17.899Z,25
2017-02-16T18:02:45.048Z,20
2017-02-16T18:04:12.210Z,15
2017-02-16T18:05:39.391Z,15
2017-02-16T18:06:51.984Z,15
2017-02-16T18:08:05.130Z,10
2017-02-16T18:09:18.281Z,15
2017-02-16T18:10:31.719Z,15
2017-02-16T18:11:58.310Z,15
2017-02-16T18:13:11.446Z,15
2017-02-16T18:14:24.606Z,15
2017-02-16T18:15:38.072Z,15
2017-02-16T18:16:51.214Z,15
2017-02-16T18:18:04.357Z,15
2017-02-16T18:19:17.503Z,15
2017-02-16T18:20:30.658Z,20
2017-02-16T18:21:57.833Z,25
2017-02-16T18:23:10.428Z,25
2017-02-16T18:25:50.920Z,25